Barton-upon-Humber, United Kingdom
Current Conditions -  °F | °C
As of 9:20 AM on Friday 24 Oct 2014 (Local Time) from EGNJ Reporting Station
Broken Clouds Broken Clouds  
Wind Chill: 57°   Ceiling: 1800
Heat Index: 57°   Visibility: 6mi
Dew Point: 55°   Wind: 13mph
Humidity: 94%   Direction: 200°SSW
Pressure: 29.88"   Gusts: NA
Location:  53.68°N, 0.44°W
Report Text: EGNJ 240820Z 20011KT 9000 BKN018 14/13 Q1012
Loading
Personal Weather Stations






























Interactive Weather Map
Tropical Storm Tracking
New forecast layout! Learn more

10-Day Weather Forecast

Advertisements
Track Severe Weather on mobile